createdAt,value
2018-07-14T00:00:58.905Z,3.95
2018-07-14T00:06:53.936Z,4.28
2018-07-14T00:12:48.931Z,3.98
2018-07-14T00:18:43.967Z,4.05
2018-07-14T00:24:38.958Z,3.19
2018-07-14T00:30:33.952Z,3.22
2018-07-14T00:36:28.946Z,3.23
2018-07-14T00:42:23.939Z,3.46
2018-07-14T00:48:18.980Z,3.38
2018-07-14T00:54:13.938Z,3.32
2018-07-14T01:00:09.373Z,3.16
2018-07-14T01:06:03.931Z,3
2018-07-14T01:11:58.924Z,3.49
2018-07-14T01:17:54.072Z,3.57
2018-07-14T01:23:48.998Z,3.67
2018-07-14T01:29:43.986Z,3.99
2018-07-14T01:35:38.950Z,3.71
2018-07-14T01:41:33.968Z,4
2018-07-14T01:47:29.011Z,3.77
2018-07-14T01:53:23.974Z,3.43
2018-07-14T01:59:18.952Z,3.43
2018-07-14T02:05:13.953Z,3.32
2018-07-14T02:11:08.958Z,3.11
2018-07-14T02:17:03.994Z,3.26
2018-07-14T02:22:58.995Z,3.86
2018-07-14T02:28:53.992Z,3.61
2018-07-14T02:34:48.985Z,3.98
2018-07-14T02:40:44.031Z,3.86
2018-07-14T02:46:39.050Z,3.94
2018-07-14T02:52:34.012Z,3.67
2018-07-14T02:58:28.998Z,4.1
2018-07-14T03:04:23.982Z,3.66
2018-07-14T03:10:19.017Z,3.9
2018-07-14T03:16:14.020Z,3.57
2018-07-14T03:22:09.012Z,3.5
2018-07-14T03:28:04.005Z,4.08
2018-07-14T03:33:59.304Z,4
2018-07-14T03:39:54.043Z,4.17
2018-07-14T03:45:49.040Z,4.15
2018-07-14T03:51:44.076Z,4.33
2018-07-14T03:57:39.047Z,3.86
2018-07-14T04:03:34.032Z,3.79
2018-07-14T04:09:29.089Z,3.89
2018-07-14T04:15:24.041Z,3.94
2018-07-14T04:21:19.091Z,3.47
2018-07-14T04:27:14.062Z,3.54
2018-07-14T04:33:09.115Z,3.47
2018-07-14T04:39:04.060Z,3.91
2018-07-14T04:44:59.077Z,4.44
2018-07-14T04:50:54.138Z,8.57
2018-07-14T04:56:49.054Z,4.67
2018-07-14T05:02:44.063Z,4.59
2018-07-14T05:08:39.054Z,4.98
2018-07-14T05:14:34.117Z,4.4
2018-07-14T05:20:29.075Z,5.05
2018-07-14T05:26:24.105Z,4.93
2018-07-14T05:32:19.087Z,5.83
2018-07-14T05:38:14.095Z,5.69
2018-07-14T05:44:09.173Z,5.91
2018-07-14T05:50:04.103Z,5.76
2018-07-14T05:55:59.110Z,5.52
2018-07-14T06:01:54.143Z,4.8
2018-07-14T06:07:49.226Z,4.55
2018-07-14T06:13:44.105Z,6.83
2018-07-14T06:19:39.209Z,8.4
2018-07-14T06:25:34.212Z,6.18
2018-07-14T06:31:29.133Z,5.32
2018-07-14T06:37:24.137Z,5.21
2018-07-14T06:43:19.160Z,5.84
2018-07-14T06:49:14.123Z,4.01
2018-07-14T06:55:09.166Z,5.36
2018-07-14T07:01:04.148Z,5.21
2018-07-14T07:06:59.145Z,3.48
2018-07-14T07:12:54.149Z,1.6
2018-07-14T07:18:49.153Z,1.78
2018-07-14T07:24:44.186Z,2.13
2018-07-14T07:30:39.185Z,1.95
2018-07-14T07:36:34.167Z,3.89
2018-07-14T07:42:29.250Z,1.91
2018-07-14T07:48:24.246Z,1.9
2018-07-14T07:54:19.211Z,1.86
2018-07-14T08:00:14.226Z,2.13
2018-07-14T08:06:09.174Z,3.77
2018-07-14T08:12:04.179Z,4.74
2018-07-14T08:17:59.168Z,1.77
2018-07-14T08:23:54.232Z,3.14
2018-07-14T08:29:49.193Z,2.73
2018-07-14T08:35:44.204Z,2.64
2018-07-14T08:41:39.209Z,2.2
2018-07-14T08:47:34.220Z,3.54
2018-07-14T08:53:29.216Z,3.47
2018-07-14T08:59:24.221Z,2.71
2018-07-14T09:05:19.267Z,3.62
2018-07-14T09:11:14.196Z,3.97
2018-07-14T09:17:09.209Z,3.51
2018-07-14T09:23:04.238Z,5.6
2018-07-14T09:28:59.289Z,4.1
2018-07-14T09:34:54.402Z,4.8
2018-07-14T09:40:49.252Z,4.38
2018-07-14T09:46:44.249Z,2.77
2018-07-14T09:52:39.229Z,5.06
2018-07-14T09:58:34.287Z,3.94
2018-07-14T10:04:29.237Z,2.76
2018-07-14T10:10:24.250Z,4.6
2018-07-14T10:16:19.237Z,4.8
2018-07-14T10:22:14.319Z,4.8
2018-07-14T10:28:09.264Z,4
2018-07-14T10:34:04.364Z,4.05
2018-07-14T10:39:59.345Z,3.51
2018-07-14T10:45:54.270Z,4.33
2018-07-14T10:51:49.328Z,4.24
2018-07-14T10:57:44.272Z,3.39
2018-07-14T11:03:39.284Z,2.67
2018-07-14T11:09:34.300Z,3.1
2018-07-14T11:15:29.296Z,3.49
2018-07-14T11:21:24.288Z,3.7
2018-07-14T11:27:19.288Z,2.75
2018-07-14T11:33:14.367Z,3.14
2018-07-14T11:39:09.329Z,3.22
2018-07-14T11:45:04.300Z,4.76
2018-07-14T11:50:59.327Z,4.7
2018-07-14T11:56:54.310Z,4.6
2018-07-14T12:02:49.308Z,4.26
2018-07-14T12:08:44.362Z,4.29
2018-07-14T12:14:39.316Z,2.77
2018-07-14T12:20:34.330Z,3.75
2018-07-14T12:26:29.328Z,3.89
2018-07-14T12:32:24.344Z,4.16
2018-07-14T12:38:19.328Z,3.04
2018-07-14T12:44:14.333Z,3.13
2018-07-14T12:50:09.389Z,2.49
2018-07-14T12:56:04.351Z,3.87
2018-07-14T13:01:59.333Z,4.39
2018-07-14T13:07:54.348Z,4.52
2018-07-14T13:13:49.348Z,4.12
2018-07-14T13:19:44.411Z,3.01
2018-07-14T13:25:39.354Z,2.18
2018-07-14T13:31:34.399Z,3.93
2018-07-14T13:37:29.422Z,2.65
2018-07-14T13:43:24.353Z,3.31
2018-07-14T13:49:19.376Z,3.82
2018-07-14T13:55:14.365Z,4.94
2018-07-14T14:01:09.405Z,3.73
2018-07-14T14:07:04.418Z,2.75
2018-07-14T14:12:59.432Z,3.89
2018-07-14T14:18:54.387Z,2.9
2018-07-14T14:24:49.381Z,2.35
2018-07-14T14:30:44.388Z,2.95
2018-07-14T14:36:39.407Z,3.14
2018-07-14T14:42:34.410Z,3.63
2018-07-14T14:48:29.423Z,2.76
2018-07-14T14:54:24.414Z,3.22
2018-07-14T15:00:19.404Z,4.47
2018-07-14T15:06:14.407Z,3.8
2018-07-14T15:12:09.487Z,2.47
2018-07-14T15:18:04.426Z,2.69
2018-07-14T15:23:59.442Z,2.96
2018-07-14T15:29:54.485Z,2.96
2018-07-14T15:35:49.465Z,2.88
2018-07-14T15:41:44.503Z,2.59
2018-07-14T15:47:39.493Z,2.37
2018-07-14T15:53:34.478Z,2.73
2018-07-14T15:59:29.451Z,2.77
2018-07-14T16:05:24.444Z,2.81
2018-07-14T16:11:19.516Z,2.7
2018-07-14T16:17:14.496Z,2.97
2018-07-14T16:23:09.484Z,2.5
2018-07-14T16:29:04.498Z,3.5
2018-07-14T16:34:59.514Z,3.25
2018-07-14T16:40:54.479Z,3.8
2018-07-14T16:46:49.481Z,3.51
2018-07-14T16:52:44.491Z,4.79
2018-07-14T16:58:39.509Z,2.88
2018-07-14T17:04:34.541Z,2.52
2018-07-14T17:10:29.493Z,3.19
2018-07-14T17:16:24.533Z,2.6
2018-07-14T17:22:19.494Z,2.66
2018-07-14T17:28:14.569Z,3.66
2018-07-14T17:34:09.489Z,4.49
2018-07-14T17:40:04.546Z,3.4
2018-07-14T17:45:59.546Z,3.99
2018-07-14T17:51:54.603Z,2.56
2018-07-14T17:57:49.524Z,3.87
2018-07-14T18:03:44.586Z,5.88
2018-07-14T18:09:39.573Z,3.69
2018-07-14T18:15:34.537Z,3.65
2018-07-14T18:21:29.526Z,2.96
2018-07-14T18:27:24.561Z,3.15
2018-07-14T18:33:19.526Z,3.03
2018-07-14T18:39:14.565Z,3.05
2018-07-14T18:45:09.580Z,4.21
2018-07-14T18:51:04.561Z,3.98
2018-07-14T18:56:59.555Z,5.17
2018-07-14T19:02:58.660Z,2.83
2018-07-14T19:08:53.784Z,5.01
2018-07-14T19:14:48.699Z,6.51
2018-07-14T19:20:43.663Z,5.4
2018-07-14T19:26:34.603Z,6.43
2018-07-14T19:32:29.575Z,5.99
2018-07-14T19:38:24.581Z,5.82
2018-07-14T19:44:19.605Z,6.13
2018-07-14T19:50:14.595Z,5.59
2018-07-14T19:56:09.631Z,6.42
2018-07-14T20:02:04.600Z,5.66
2018-07-14T20:07:59.649Z,5.76
2018-07-14T20:13:54.594Z,5.87
2018-07-14T20:19:49.604Z,5.38
2018-07-14T20:25:44.633Z,5.56
2018-07-14T20:31:39.645Z,5.38
2018-07-14T20:37:34.644Z,5.41
2018-07-14T20:43:29.643Z,6.38
2018-07-14T20:49:24.635Z,6.2
2018-07-14T20:55:19.642Z,6.68
2018-07-14T21:01:14.632Z,4.97
2018-07-14T21:07:09.658Z,5.53
2018-07-14T21:13:04.645Z,4.48
2018-07-14T21:18:59.630Z,4.72
2018-07-14T21:24:54.703Z,5.39
2018-07-14T21:30:49.651Z,4.98
2018-07-14T21:36:44.649Z,4.87
2018-07-14T21:42:39.661Z,3.98
2018-07-14T21:48:34.639Z,3.87
2018-07-14T21:54:29.678Z,3.87
2018-07-14T22:00:24.656Z,3.62
2018-07-14T22:06:19.693Z,4.15
2018-07-14T22:12:14.741Z,3.83
2018-07-14T22:18:09.698Z,4.12
2018-07-14T22:24:04.695Z,4.28
2018-07-14T22:29:59.717Z,4.43
2018-07-14T22:35:54.725Z,4.3
2018-07-14T22:41:49.720Z,4.5
2018-07-14T22:47:44.700Z,4.92
2018-07-14T22:53:39.685Z,4.71
2018-07-14T22:59:34.749Z,5.18
2018-07-14T23:05:29.761Z,4.54
2018-07-14T23:11:24.701Z,4.86
2018-07-14T23:17:19.710Z,4.46
2018-07-14T23:23:14.734Z,5.09
2018-07-14T23:29:09.704Z,4.98
2018-07-14T23:35:04.736Z,5.21
2018-07-14T23:40:59.727Z,5
2018-07-14T23:46:54.716Z,4.6
2018-07-14T23:52:49.737Z,3.99
2018-07-14T23:58:44.744Z,4.42
